sensor_id;sensor_type;location;lat;lon;timestamp;P1;durP1;ratioP1;P2;durP2;ratioP2
78778;SDS011;68121;52.404;5.318;2023-03-31T00:00:51;10.07;;;2.05;;
78778;SDS011;68121;52.404;5.318;2023-03-31T00:03:18;8.00;;;1.55;;
78778;SDS011;68121;52.404;5.318;2023-03-31T00:05:48;14.27;;;2.70;;
78778;SDS011;68121;52.404;5.318;2023-03-31T00:08:25;13.90;;;2.42;;
78778;SDS011;68121;52.404;5.318;2023-03-31T00:10:57;13.93;;;3.28;;
78778;SDS011;68121;52.404;5.318;2023-03-31T00:13:26;16.17;;;3.30;;
78778;SDS011;68121;52.404;5.318;2023-03-31T00:16:06;17.05;;;2.95;;
78778;SDS011;68121;52.404;5.318;2023-03-31T00:18:34;14.45;;;2.17;;
78778;SDS011;68121;52.404;5.318;2023-03-31T00:21:08;17.45;;;2.42;;
78778;SDS011;68121;52.404;5.318;2023-03-31T00:23:39;9.82;;;2.05;;
78778;SDS011;68121;52.404;5.318;2023-03-31T00:26:06;14.93;;;2.38;;
78778;SDS011;68121;52.404;5.318;2023-03-31T00:28:32;9.70;;;1.60;;
78778;SDS011;68121;52.404;5.318;2023-03-31T00:30:59;15.15;;;2.13;;
78778;SDS011;68121;52.404;5.318;2023-03-31T00:33:26;16.55;;;2.38;;
78778;SDS011;68121;52.404;5.318;2023-03-31T00:35:53;12.07;;;1.65;;
78778;SDS011;68121;52.404;5.318;2023-03-31T00:38:19;11.20;;;2.55;;
78778;SDS011;68121;52.404;5.318;2023-03-31T00:40:46;10.63;;;2.78;;
78778;SDS011;68121;52.404;5.318;2023-03-31T00:43:20;12.30;;;2.22;;
78778;SDS011;68121;52.404;5.318;2023-03-31T00:45:53;14.50;;;2.47;;
78778;SDS011;68121;52.404;5.318;2023-03-31T00:48:25;10.30;;;2.17;;
78778;SDS011;68121;52.404;5.318;2023-03-31T00:50:53;10.07;;;2.10;;
78778;SDS011;68121;52.404;5.318;2023-03-31T00:53:21;12.82;;;1.90;;
78778;SDS011;68121;52.404;5.318;2023-03-31T00:55:52;10.68;;;2.40;;
78778;SDS011;68121;52.404;5.318;2023-03-31T00:58:20;12.05;;;2.10;;
78778;SDS011;68121;52.404;5.318;2023-03-31T01:00:53;11.38;;;2.13;;
78778;SDS011;68121;52.404;5.318;2023-03-31T01:03:21;9.20;;;1.85;;
78778;SDS011;68121;52.404;5.318;2023-03-31T01:05:49;10.88;;;2.08;;
78778;SDS011;68121;52.404;5.318;2023-03-31T01:08:19;11.23;;;2.40;;
78778;SDS011;68121;52.404;5.318;2023-03-31T01:10:53;12.98;;;1.88;;
78778;SDS011;68121;52.404;5.318;2023-03-31T01:13:21;11.75;;;2.55;;
78778;SDS011;68121;52.404;5.318;2023-03-31T01:15:49;7.07;;;1.52;;
78778;SDS011;68121;52.404;5.318;2023-03-31T01:18:15;9.88;;;2.17;;
78778;SDS011;68121;52.404;5.318;2023-03-31T01:32:00;8.43;;;1.80;;
78778;SDS011;68121;52.404;5.318;2023-03-31T01:40:25;8.63;;;1.67;;
78778;SDS011;68121;52.404;5.318;2023-03-31T01:43:19;9.00;;;2.08;;
78778;SDS011;68121;52.404;5.318;2023-03-31T01:48:36;10.15;;;2.00;;
78778;SDS011;68121;52.404;5.318;2023-03-31T01:51:34;7.32;;;1.95;;
78778;SDS011;68121;52.404;5.318;2023-03-31T01:56:45;12.27;;;1.90;;
78778;SDS011;68121;52.404;5.318;2023-03-31T01:59:31;9.63;;;2.08;;
78778;SDS011;68121;52.404;5.318;2023-03-31T02:02:20;8.90;;;1.95;;
78778;SDS011;68121;52.404;5.318;2023-03-31T02:04:56;7.25;;;1.60;;
78778;SDS011;68121;52.404;5.318;2023-03-31T02:07:27;11.98;;;2.15;;
78778;SDS011;68121;52.404;5.318;2023-03-31T02:10:04;17.27;;;2.35;;
78778;SDS011;68121;52.404;5.318;2023-03-31T02:12:33;6.18;;;1.42;;
78778;SDS011;68121;52.404;5.318;2023-03-31T02:15:03;8.27;;;1.73;;
78778;SDS011;68121;52.404;5.318;2023-03-31T02:17:33;6.72;;;1.65;;
78778;SDS011;68121;52.404;5.318;2023-03-31T02:20:09;8.52;;;2.10;;
78778;SDS011;68121;52.404;5.318;2023-03-31T02:22:38;9.52;;;2.25;;
78778;SDS011;68121;52.404;5.318;2023-03-31T02:25:09;8.05;;;3.33;;
78778;SDS011;68121;52.404;5.318;2023-03-31T02:27:39;5.55;;;2.45;;
78778;SDS011;68121;52.404;5.318;2023-03-31T02:30:12;11.35;;;2.67;;
78778;SDS011;68121;52.404;5.318;2023-03-31T02:32:39;10.07;;;3.20;;
78778;SDS011;68121;52.404;5.318;2023-03-31T02:35:17;10.50;;;2.17;;
78778;SDS011;68121;52.404;5.318;2023-03-31T02:37:46;11.73;;;3.03;;
78778;SDS011;68121;52.404;5.318;2023-03-31T02:40:18;10.18;;;2.78;;
78778;SDS011;68121;52.404;5.318;2023-03-31T02:42:46;7.75;;;3.00;;
78778;SDS011;68121;52.404;5.318;2023-03-31T02:48:31;11.18;;;2.88;;
78778;SDS011;68121;52.404;5.318;2023-03-31T02:56:31;6.78;;;2.38;;
78778;SDS011;68121;52.404;5.318;2023-03-31T02:59:14;7.55;;;2.40;;
78778;SDS011;68121;52.404;5.318;2023-03-31T03:02:11;13.73;;;3.53;;
78778;SDS011;68121;52.404;5.318;2023-03-31T03:07:48;8.00;;;2.67;;
78778;SDS011;68121;52.404;5.318;2023-03-31T03:10:27;10.82;;;3.95;;
78778;SDS011;68121;52.404;5.318;2023-03-31T03:13:22;11.57;;;3.15;;
78778;SDS011;68121;52.404;5.318;2023-03-31T03:16:36;9.93;;;2.92;;
78778;SDS011;68121;52.404;5.318;2023-03-31T03:19:07;8.27;;;2.08;;
78778;SDS011;68121;52.404;5.318;2023-03-31T03:21:33;5.20;;;1.70;;
78778;SDS011;68121;52.404;5.318;2023-03-31T03:23:59;9.35;;;2.72;;
78778;SDS011;68121;52.404;5.318;2023-03-31T03:26:26;5.43;;;1.83;;
78778;SDS011;68121;52.404;5.318;2023-03-31T03:28:53;5.75;;;1.67;;
78778;SDS011;68121;52.404;5.318;2023-03-31T03:31:20;9.48;;;2.97;;
78778;SDS011;68121;52.404;5.318;2023-03-31T03:33:51;7.75;;;2.80;;
78778;SDS011;68121;52.404;5.318;2023-03-31T03:36:17;10.38;;;2.80;;
78778;SDS011;68121;52.404;5.318;2023-03-31T03:38:44;12.55;;;3.58;;
78778;SDS011;68121;52.404;5.318;2023-03-31T03:41:10;8.48;;;3.20;;
78778;SDS011;68121;52.404;5.318;2023-03-31T03:43:36;7.60;;;3.00;;
78778;SDS011;68121;52.404;5.318;2023-03-31T03:46:02;11.35;;;3.38;;
78778;SDS011;68121;52.404;5.318;2023-03-31T03:48:30;11.32;;;3.17;;
78778;SDS011;68121;52.404;5.318;2023-03-31T03:50:58;8.32;;;3.53;;
78778;SDS011;68121;52.404;5.318;2023-03-31T03:53:25;10.93;;;3.13;;
78778;SDS011;68121;52.404;5.318;2023-03-31T03:55:51;7.88;;;3.65;;
78778;SDS011;68121;52.404;5.318;2023-03-31T03:58:17;8.52;;;3.40;;
78778;SDS011;68121;52.404;5.318;2023-03-31T04:00:44;8.77;;;3.28;;
78778;SDS011;68121;52.404;5.318;2023-03-31T04:03:11;8.82;;;3.15;;
78778;SDS011;68121;52.404;5.318;2023-03-31T04:05:39;8.82;;;3.55;;
78778;SDS011;68121;52.404;5.318;2023-03-31T04:08:05;10.57;;;3.25;;
78778;SDS011;68121;52.404;5.318;2023-03-31T04:10:33;6.93;;;2.42;;
78778;SDS011;68121;52.404;5.318;2023-03-31T04:13:00;6.85;;;2.63;;
78778;SDS011;68121;52.404;5.318;2023-03-31T04:15:26;4.72;;;1.95;;
78778;SDS011;68121;52.404;5.318;2023-03-31T04:17:52;6.28;;;2.35;;
78778;SDS011;68121;52.404;5.318;2023-03-31T04:20:19;5.57;;;2.70;;
78778;SDS011;68121;52.404;5.318;2023-03-31T04:22:46;8.43;;;3.20;;
78778;SDS011;68121;52.404;5.318;2023-03-31T04:25:15;7.43;;;2.28;;
78778;SDS011;68121;52.404;5.318;2023-03-31T04:27:42;9.57;;;2.15;;
78778;SDS011;68121;52.404;5.318;2023-03-31T04:30:12;6.82;;;1.85;;
78778;SDS011;68121;52.404;5.318;2023-03-31T04:32:50;7.65;;;2.00;;
78778;SDS011;68121;52.404;5.318;2023-03-31T04:35:20;6.20;;;1.65;;
78778;SDS011;68121;52.404;5.318;2023-03-31T04:37:47;5.47;;;1.67;;
78778;SDS011;68121;52.404;5.318;2023-03-31T04:40:15;7.13;;;1.90;;
78778;SDS011;68121;52.404;5.318;2023-03-31T04:42:42;9.38;;;2.03;;
78778;SDS011;68121;52.404;5.318;2023-03-31T04:45:09;4.97;;;1.45;;
78778;SDS011;68121;52.404;5.318;2023-03-31T04:47:36;7.82;;;2.15;;
78778;SDS011;68121;52.404;5.318;2023-03-31T04:50:03;6.70;;;1.88;;
78778;SDS011;68121;52.404;5.318;2023-03-31T04:52:29;5.68;;;1.30;;
78778;SDS011;68121;52.404;5.318;2023-03-31T04:54:55;6.90;;;1.33;;
78778;SDS011;68121;52.404;5.318;2023-03-31T04:57:21;6.25;;;1.65;;
78778;SDS011;68121;52.404;5.318;2023-03-31T04:59:48;4.18;;;1.45;;
78778;SDS011;68121;52.404;5.318;2023-03-31T05:02:14;6.70;;;2.28;;
78778;SDS011;68121;52.404;5.318;2023-03-31T05:04:50;4.63;;;1.73;;
78778;SDS011;68121;52.404;5.318;2023-03-31T05:07:17;6.50;;;1.67;;
78778;SDS011;68121;52.404;5.318;2023-03-31T05:09:43;6.07;;;1.27;;
78778;SDS011;68121;52.404;5.318;2023-03-31T05:12:09;4.93;;;2.17;;
78778;SDS011;68121;52.404;5.318;2023-03-31T05:14:36;5.63;;;1.45;;
78778;SDS011;68121;52.404;5.318;2023-03-31T05:17:02;4.20;;;0.95;;
78778;SDS011;68121;52.404;5.318;2023-03-31T05:19:28;3.83;;;1.45;;
78778;SDS011;68121;52.404;5.318;2023-03-31T05:21:54;6.57;;;1.13;;
78778;SDS011;68121;52.404;5.318;2023-03-31T05:24:20;3.50;;;1.15;;
78778;SDS011;68121;52.404;5.318;2023-03-31T05:26:46;4.38;;;1.20;;
78778;SDS011;68121;52.404;5.318;2023-03-31T05:29:17;3.58;;;1.30;;
78778;SDS011;68121;52.404;5.318;2023-03-31T05:31:44;4.65;;;1.65;;
78778;SDS011;68121;52.404;5.318;2023-03-31T05:34:10;8.35;;;1.23;;
78778;SDS011;68121;52.404;5.318;2023-03-31T05:36:36;3.10;;;1.10;;
78778;SDS011;68121;52.404;5.318;2023-03-31T05:39:03;4.65;;;1.50;;
78778;SDS011;68121;52.404;5.318;2023-03-31T05:41:29;5.35;;;1.40;;
78778;SDS011;68121;52.404;5.318;2023-03-31T05:43:55;4.15;;;1.88;;
78778;SDS011;68121;52.404;5.318;2023-03-31T05:46:22;5.05;;;1.75;;
78778;SDS011;68121;52.404;5.318;2023-03-31T05:48:48;6.15;;;1.75;;
78778;SDS011;68121;52.404;5.318;2023-03-31T05:51:14;5.70;;;2.10;;
78778;SDS011;68121;52.404;5.318;2023-03-31T05:53:40;4.60;;;1.65;;
78778;SDS011;68121;52.404;5.318;2023-03-31T05:56:06;6.32;;;1.52;;
78778;SDS011;68121;52.404;5.318;2023-03-31T05:58:33;6.25;;;1.55;;
78778;SDS011;68121;52.404;5.318;2023-03-31T06:01:05;6.32;;;1.60;;
78778;SDS011;68121;52.404;5.318;2023-03-31T06:03:33;6.78;;;1.42;;
78778;SDS011;68121;52.404;5.318;2023-03-31T06:06:00;7.63;;;2.10;;
78778;SDS011;68121;52.404;5.318;2023-03-31T06:08:27;5.63;;;1.52;;
78778;SDS011;68121;52.404;5.318;2023-03-31T06:10:54;6.03;;;1.40;;
78778;SDS011;68121;52.404;5.318;2023-03-31T06:13:20;4.78;;;1.63;;
78778;SDS011;68121;52.404;5.318;2023-03-31T06:15:56;6.50;;;1.50;;
78778;SDS011;68121;52.404;5.318;2023-03-31T06:18:23;4.55;;;1.52;;
78778;SDS011;68121;52.404;5.318;2023-03-31T06:20:51;4.13;;;1.20;;
78778;SDS011;68121;52.404;5.318;2023-03-31T06:23:17;3.35;;;1.20;;
78778;SDS011;68121;52.404;5.318;2023-03-31T06:25:43;6.80;;;1.42;;
78778;SDS011;68121;52.404;5.318;2023-03-31T06:28:09;5.07;;;1.20;;
78778;SDS011;68121;52.404;5.318;2023-03-31T06:30:35;5.82;;;2.20;;
78778;SDS011;68121;52.404;5.318;2023-03-31T06:33:01;4.90;;;1.58;;
78778;SDS011;68121;52.404;5.318;2023-03-31T06:35:27;5.70;;;1.60;;
78778;SDS011;68121;52.404;5.318;2023-03-31T06:37:53;8.05;;;1.75;;
78778;SDS011;68121;52.404;5.318;2023-03-31T06:40:19;7.00;;;1.65;;
78778;SDS011;68121;52.404;5.318;2023-03-31T06:42:45;7.88;;;2.45;;
78778;SDS011;68121;52.404;5.318;2023-03-31T06:45:11;3.97;;;1.20;;
78778;SDS011;68121;52.404;5.318;2023-03-31T06:47:37;3.38;;;1.55;;
78778;SDS011;68121;52.404;5.318;2023-03-31T06:50:06;3.10;;;1.70;;
78778;SDS011;68121;52.404;5.318;2023-03-31T06:52:34;5.38;;;2.40;;
78778;SDS011;68121;52.404;5.318;2023-03-31T06:55:01;2.80;;;1.60;;
78778;SDS011;68121;52.404;5.318;2023-03-31T06:57:28;8.07;;;1.35;;
78778;SDS011;68121;52.404;5.318;2023-03-31T06:59:57;3.13;;;1.38;;
78778;SDS011;68121;52.404;5.318;2023-03-31T07:02:23;6.38;;;1.63;;
78778;SDS011;68121;52.404;5.318;2023-03-31T07:04:49;6.68;;;1.45;;
78778;SDS011;68121;52.404;5.318;2023-03-31T07:07:15;5.03;;;1.60;;
78778;SDS011;68121;52.404;5.318;2023-03-31T07:09:41;5.13;;;1.00;;
78778;SDS011;68121;52.404;5.318;2023-03-31T07:12:07;5.38;;;1.25;;
78778;SDS011;68121;52.404;5.318;2023-03-31T07:14:34;3.97;;;1.40;;
78778;SDS011;68121;52.404;5.318;2023-03-31T07:17:01;2.05;;;0.95;;
78778;SDS011;68121;52.404;5.318;2023-03-31T07:19:27;3.40;;;1.25;;
78778;SDS011;68121;52.404;5.318;2023-03-31T07:21:53;4.40;;;1.20;;
78778;SDS011;68121;52.404;5.318;2023-03-31T07:24:21;3.15;;;1.17;;
78778;SDS011;68121;52.404;5.318;2023-03-31T07:26:47;5.72;;;1.52;;
78778;SDS011;68121;52.404;5.318;2023-03-31T07:29:13;2.75;;;1.20;;
78778;SDS011;68121;52.404;5.318;2023-03-31T07:31:39;5.97;;;1.40;;
78778;SDS011;68121;52.404;5.318;2023-03-31T07:34:05;3.47;;;1.30;;
78778;SDS011;68121;52.404;5.318;2023-03-31T07:36:31;2.80;;;1.23;;
78778;SDS011;68121;52.404;5.318;2023-03-31T07:38:57;5.57;;;1.52;;
78778;SDS011;68121;52.404;5.318;2023-03-31T07:41:23;3.20;;;1.20;;
78778;SDS011;68121;52.404;5.318;2023-03-31T07:43:50;5.93;;;1.15;;
78778;SDS011;68121;52.404;5.318;2023-03-31T07:46:21;3.65;;;1.17;;
78778;SDS011;68121;52.404;5.318;2023-03-31T07:48:49;2.58;;;1.17;;
78778;SDS011;68121;52.404;5.318;2023-03-31T07:51:17;3.65;;;1.30;;
78778;SDS011;68121;52.404;5.318;2023-03-31T07:53:45;2.58;;;0.93;;
78778;SDS011;68121;52.404;5.318;2023-03-31T07:56:13;5.00;;;1.40;;
78778;SDS011;68121;52.404;5.318;2023-03-31T07:58:41;2.72;;;0.88;;
78778;SDS011;68121;52.404;5.318;2023-03-31T08:01:08;2.97;;;0.90;;
78778;SDS011;68121;52.404;5.318;2023-03-31T08:03:34;5.93;;;1.10;;
78778;SDS011;68121;52.404;5.318;2023-03-31T08:06:00;3.05;;;0.98;;
78778;SDS011;68121;52.404;5.318;2023-03-31T08:08:26;3.75;;;1.35;;
78778;SDS011;68121;52.404;5.318;2023-03-31T08:10:52;6.53;;;1.63;;
78778;SDS011;68121;52.404;5.318;2023-03-31T08:13:18;2.30;;;1.10;;
78778;SDS011;68121;52.404;5.318;2023-03-31T08:15:44;5.15;;;1.48;;
78778;SDS011;68121;52.404;5.318;2023-03-31T08:18:11;3.72;;;0.88;;
78778;SDS011;68121;52.404;5.318;2023-03-31T08:20:37;3.03;;;0.90;;
78778;SDS011;68121;52.404;5.318;2023-03-31T08:23:03;5.00;;;1.00;;
78778;SDS011;68121;52.404;5.318;2023-03-31T08:25:33;5.38;;;1.13;;
78778;SDS011;68121;52.404;5.318;2023-03-31T08:27:59;3.25;;;1.20;;
78778;SDS011;68121;52.404;5.318;2023-03-31T08:30:25;5.18;;;1.20;;
78778;SDS011;68121;52.404;5.318;2023-03-31T08:32:51;2.92;;;1.27;;
78778;SDS011;68121;52.404;5.318;2023-03-31T08:35:17;5.43;;;1.50;;
78778;SDS011;68121;52.404;5.318;2023-03-31T08:37:43;3.83;;;1.45;;
78778;SDS011;68121;52.404;5.318;2023-03-31T08:40:13;5.35;;;1.58;;
78778;SDS011;68121;52.404;5.318;2023-03-31T08:42:45;4.70;;;1.20;;
78778;SDS011;68121;52.404;5.318;2023-03-31T08:47:46;9.23;;;1.92;;
78778;SDS011;68121;52.404;5.318;2023-03-31T08:50:18;7.25;;;1.70;;
78778;SDS011;68121;52.404;5.318;2023-03-31T08:52:56;8.27;;;1.65;;
78778;SDS011;68121;52.404;5.318;2023-03-31T08:55:50;2.95;;;1.50;;
78778;SDS011;68121;52.404;5.318;2023-03-31T09:06:34;4.63;;;1.92;;
78778;SDS011;68121;52.404;5.318;2023-03-31T09:09:10;2.95;;;1.30;;
78778;SDS011;68121;52.404;5.318;2023-03-31T09:11:49;4.80;;;1.98;;
78778;SDS011;68121;52.404;5.318;2023-03-31T09:19:57;6.57;;;2.10;;
78778;SDS011;68121;52.404;5.318;2023-03-31T09:22:33;7.53;;;2.20;;
78778;SDS011;68121;52.404;5.318;2023-03-31T09:25:04;8.48;;;2.55;;
78778;SDS011;68121;52.404;5.318;2023-03-31T09:27:41;5.18;;;2.00;;
78778;SDS011;68121;52.404;5.318;2023-03-31T09:30:15;7.68;;;2.42;;
78778;SDS011;68121;52.404;5.318;2023-03-31T09:32:51;8.07;;;1.95;;
78778;SDS011;68121;52.404;5.318;2023-03-31T09:35:23;5.13;;;1.90;;
78778;SDS011;68121;52.404;5.318;2023-03-31T09:37:51;6.28;;;1.80;;
78778;SDS011;68121;52.404;5.318;2023-03-31T09:40:22;7.28;;;1.70;;
78778;SDS011;68121;52.404;5.318;2023-03-31T09:45:18;4.32;;;2.25;;
78778;SDS011;68121;52.404;5.318;2023-03-31T09:47:46;7.35;;;1.83;;
78778;SDS011;68121;52.404;5.318;2023-03-31T09:50:16;7.80;;;1.80;;
78778;SDS011;68121;52.404;5.318;2023-03-31T09:52:45;6.10;;;1.58;;
78778;SDS011;68121;52.404;5.318;2023-03-31T09:55:21;4.70;;;1.60;;
78778;SDS011;68121;52.404;5.318;2023-03-31T09:57:48;7.63;;;1.50;;
78778;SDS011;68121;52.404;5.318;2023-03-31T10:00:18;6.35;;;1.80;;
78778;SDS011;68121;52.404;5.318;2023-03-31T10:05:32;6.45;;;1.92;;
78778;SDS011;68121;52.404;5.318;2023-03-31T10:13:09;9.68;;;2.30;;
78778;SDS011;68121;52.404;5.318;2023-03-31T10:15:38;9.30;;;2.13;;
78778;SDS011;68121;52.404;5.318;2023-03-31T10:18:05;9.30;;;1.50;;
78778;SDS011;68121;52.404;5.318;2023-03-31T10:20:32;10.18;;;1.95;;
78778;SDS011;68121;52.404;5.318;2023-03-31T10:23:02;10.10;;;1.65;;
78778;SDS011;68121;52.404;5.318;2023-03-31T10:25:47;8.65;;;1.95;;
78778;SDS011;68121;52.404;5.318;2023-03-31T10:28:15;9.27;;;1.70;;
78778;SDS011;68121;52.404;5.318;2023-03-31T10:30:47;7.15;;;1.73;;
78778;SDS011;68121;52.404;5.318;2023-03-31T10:33:16;9.52;;;1.98;;
78778;SDS011;68121;52.404;5.318;2023-03-31T10:35:48;7.30;;;1.77;;
78778;SDS011;68121;52.404;5.318;2023-03-31T10:38:26;11.82;;;1.67;;
78778;SDS011;68121;52.404;5.318;2023-03-31T10:40:56;4.95;;;1.45;;
78778;SDS011;68121;52.404;5.318;2023-03-31T10:43:28;5.95;;;1.63;;
78778;SDS011;68121;52.404;5.318;2023-03-31T10:51:13;5.38;;;1.45;;
78778;SDS011;68121;52.404;5.318;2023-03-31T10:53:52;10.30;;;2.00;;
78778;SDS011;68121;52.404;5.318;2023-03-31T10:56:23;9.18;;;1.58;;
78778;SDS011;68121;52.404;5.318;2023-03-31T10:59:13;6.00;;;1.50;;
78778;SDS011;68121;52.404;5.318;2023-03-31T11:07:53;5.07;;;1.08;;
78778;SDS011;68121;52.404;5.318;2023-03-31T11:15:59;6.85;;;1.58;;
78778;SDS011;68121;52.404;5.318;2023-03-31T11:26:50;7.93;;;1.35;;
78778;SDS011;68121;52.404;5.318;2023-03-31T11:40:40;9.70;;;1.70;;
78778;SDS011;68121;52.404;5.318;2023-03-31T11:43:28;3.80;;;1.42;;
78778;SDS011;68121;52.404;5.318;2023-03-31T11:49:14;11.00;;;2.47;;
78778;SDS011;68121;52.404;5.318;2023-03-31T11:54:56;7.90;;;1.40;;
78778;SDS011;68121;52.404;5.318;2023-03-31T11:57:03;6.63;;;1.33;;
78778;SDS011;68121;52.404;5.318;2023-03-31T11:59:38;6.30;;;1.55;;
78778;SDS011;68121;52.404;5.318;2023-03-31T12:02:20;6.15;;;1.42;;
78778;SDS011;68121;52.404;5.318;2023-03-31T12:04:56;3.40;;;1.52;;
78778;SDS011;68121;52.404;5.318;2023-03-31T12:07:28;4.93;;;1.38;;
78778;SDS011;68121;52.404;5.318;2023-03-31T12:13:02;5.22;;;1.40;;
78778;SDS011;68121;52.404;5.318;2023-03-31T12:15:57;5.10;;;1.30;;
78778;SDS011;68121;52.404;5.318;2023-03-31T12:18:43;6.22;;;1.60;;
78778;SDS011;68121;52.404;5.318;2023-03-31T12:21:31;8.32;;;1.52;;
78778;SDS011;68121;52.404;5.318;2023-03-31T12:24:00;5.65;;;1.20;;
78778;SDS011;68121;52.404;5.318;2023-03-31T12:29:21;6.53;;;1.10;;
78778;SDS011;68121;52.404;5.318;2023-03-31T12:31:48;6.40;;;1.13;;
78778;SDS011;68121;52.404;5.318;2023-03-31T12:34:18;4.75;;;1.00;;
78778;SDS011;68121;52.404;5.318;2023-03-31T12:39:50;3.70;;;0.85;;
78778;SDS011;68121;52.404;5.318;2023-03-31T12:42:34;6.63;;;1.00;;
78778;SDS011;68121;52.404;5.318;2023-03-31T12:45:22;6.28;;;1.50;;
78778;SDS011;68121;52.404;5.318;2023-03-31T12:51:36;6.07;;;1.63;;
78778;SDS011;68121;52.404;5.318;2023-03-31T12:59:39;3.50;;;0.75;;
78778;SDS011;68121;52.404;5.318;2023-03-31T13:04:41;2.30;;;0.75;;
78778;SDS011;68121;52.404;5.318;2023-03-31T13:07:12;4.05;;;0.88;;
78778;SDS011;68121;52.404;5.318;2023-03-31T13:09:46;2.72;;;0.60;;
78778;SDS011;68121;52.404;5.318;2023-03-31T13:12:17;8.13;;;1.25;;
78778;SDS011;68121;52.404;5.318;2023-03-31T13:14:46;2.38;;;0.95;;
78778;SDS011;68121;52.404;5.318;2023-03-31T13:19:53;8.10;;;1.13;;
78778;SDS011;68121;52.404;5.318;2023-03-31T13:27:58;4.00;;;0.75;;
78778;SDS011;68121;52.404;5.318;2023-03-31T13:33:06;4.18;;;0.93;;
78778;SDS011;68121;52.404;5.318;2023-03-31T13:35:56;5.72;;;1.98;;
78778;SDS011;68121;52.404;5.318;2023-03-31T13:58:18;3.83;;;0.90;;
78778;SDS011;68121;52.404;5.318;2023-03-31T14:06:19;5.57;;;0.90;;
78778;SDS011;68121;52.404;5.318;2023-03-31T14:09:02;4.40;;;1.05;;
78778;SDS011;68121;52.404;5.318;2023-03-31T14:14:16;2.33;;;0.90;;
78778;SDS011;68121;52.404;5.318;2023-03-31T14:16:44;3.53;;;1.13;;
78778;SDS011;68121;52.404;5.318;2023-03-31T14:19:21;4.70;;;1.10;;
78778;SDS011;68121;52.404;5.318;2023-03-31T14:21:57;4.50;;;0.98;;
78778;SDS011;68121;52.404;5.318;2023-03-31T14:24:50;3.15;;;1.13;;
78778;SDS011;68121;52.404;5.318;2023-03-31T14:27:29;4.85;;;1.10;;
78778;SDS011;68121;52.404;5.318;2023-03-31T14:30:05;7.97;;;1.05;;
78778;SDS011;68121;52.404;5.318;2023-03-31T14:38:50;3.70;;;1.92;;
78778;SDS011;68121;52.404;5.318;2023-03-31T14:41:17;5.65;;;1.08;;
78778;SDS011;68121;52.404;5.318;2023-03-31T14:43:46;3.33;;;0.98;;
78778;SDS011;68121;52.404;5.318;2023-03-31T14:46:19;5.63;;;0.98;;
78778;SDS011;68121;52.404;5.318;2023-03-31T14:48:46;3.55;;;0.80;;
78778;SDS011;68121;52.404;5.318;2023-03-31T14:51:15;6.55;;;1.00;;
78778;SDS011;68121;52.404;5.318;2023-03-31T14:53:42;5.15;;;1.00;;
78778;SDS011;68121;52.404;5.318;2023-03-31T14:56:13;4.53;;;1.20;;
78778;SDS011;68121;52.404;5.318;2023-03-31T14:58:43;4.53;;;1.13;;
78778;SDS011;68121;52.404;5.318;2023-03-31T15:01:14;3.55;;;1.10;;
78778;SDS011;68121;52.404;5.318;2023-03-31T15:03:48;6.72;;;1.00;;
78778;SDS011;68121;52.404;5.318;2023-03-31T15:06:16;4.53;;;1.50;;
78778;SDS011;68121;52.404;5.318;2023-03-31T15:08:42;7.72;;;1.23;;
78778;SDS011;68121;52.404;5.318;2023-03-31T15:11:11;6.57;;;1.38;;
78778;SDS011;68121;52.404;5.318;2023-03-31T15:13:46;2.00;;;0.75;;
78778;SDS011;68121;52.404;5.318;2023-03-31T15:19:23;3.95;;;1.13;;
78778;SDS011;68121;52.404;5.318;2023-03-31T15:21:54;5.65;;;0.80;;
78778;SDS011;68121;52.404;5.318;2023-03-31T15:24:26;4.32;;;0.90;;
78778;SDS011;68121;52.404;5.318;2023-03-31T15:26:58;3.25;;;0.80;;
78778;SDS011;68121;52.404;5.318;2023-03-31T15:29:49;4.20;;;0.90;;
78778;SDS011;68121;52.404;5.318;2023-03-31T15:32:27;3.50;;;0.80;;
78778;SDS011;68121;52.404;5.318;2023-03-31T15:34:55;2.90;;;0.40;;
78778;SDS011;68121;52.404;5.318;2023-03-31T15:37:26;6.20;;;2.75;;
78778;SDS011;68121;52.404;5.318;2023-03-31T15:39:57;2.33;;;1.10;;
78778;SDS011;68121;52.404;5.318;2023-03-31T15:42:25;1.45;;;0.80;;
78778;SDS011;68121;52.404;5.318;2023-03-31T15:44:53;4.22;;;1.13;;
78778;SDS011;68121;52.404;5.318;2023-03-31T15:47:23;2.72;;;0.98;;
78778;SDS011;68121;52.404;5.318;2023-03-31T15:49:54;1.88;;;0.60;;
78778;SDS011;68121;52.404;5.318;2023-03-31T15:52:38;2.47;;;1.00;;
78778;SDS011;68121;52.404;5.318;2023-03-31T15:55:31;1.90;;;1.00;;
78778;SDS011;68121;52.404;5.318;2023-03-31T15:58:04;3.42;;;1.30;;
78778;SDS011;68121;52.404;5.318;2023-03-31T16:02:56;1.67;;;1.17;;
78778;SDS011;68121;52.404;5.318;2023-03-31T16:05:33;3.38;;;1.60;;
78778;SDS011;68121;52.404;5.318;2023-03-31T16:08:12;2.63;;;1.00;;
78778;SDS011;68121;52.404;5.318;2023-03-31T16:10:42;3.05;;;1.13;;
78778;SDS011;68121;52.404;5.318;2023-03-31T16:13:08;3.70;;;1.25;;
78778;SDS011;68121;52.404;5.318;2023-03-31T16:15:38;1.98;;;1.15;;
78778;SDS011;68121;52.404;5.318;2023-03-31T16:18:10;1.98;;;1.08;;
78778;SDS011;68121;52.404;5.318;2023-03-31T16:20:41;3.83;;;1.20;;
78778;SDS011;68121;52.404;5.318;2023-03-31T16:23:14;2.85;;;1.17;;
78778;SDS011;68121;52.404;5.318;2023-03-31T16:25:43;2.10;;;1.02;;
78778;SDS011;68121;52.404;5.318;2023-03-31T16:28:17;3.60;;;1.30;;
78778;SDS011;68121;52.404;5.318;2023-03-31T16:30:48;1.63;;;0.80;;
78778;SDS011;68121;52.404;5.318;2023-03-31T16:33:15;2.83;;;0.82;;
78778;SDS011;68121;52.404;5.318;2023-03-31T16:35:44;2.35;;;0.93;;
78778;SDS011;68121;52.404;5.318;2023-03-31T16:38:13;1.40;;;1.00;;
78778;SDS011;68121;52.404;5.318;2023-03-31T16:40:41;2.03;;;0.98;;
78778;SDS011;68121;52.404;5.318;2023-03-31T16:43:13;1.48;;;1.02;;
78778;SDS011;68121;52.404;5.318;2023-03-31T16:45:43;2.53;;;1.13;;
78778;SDS011;68121;52.404;5.318;2023-03-31T16:48:14;2.60;;;1.33;;
78778;SDS011;68121;52.404;5.318;2023-03-31T16:50:42;3.38;;;1.33;;
78778;SDS011;68121;52.404;5.318;2023-03-31T16:53:13;1.55;;;1.20;;
78778;SDS011;68121;52.404;5.318;2023-03-31T16:55:41;2.45;;;1.20;;
78778;SDS011;68121;52.404;5.318;2023-03-31T16:58:07;3.92;;;1.30;;
78778;SDS011;68121;52.404;5.318;2023-03-31T17:00:34;2.88;;;1.13;;
78778;SDS011;68121;52.404;5.318;2023-03-31T17:03:04;6.60;;;1.60;;
78778;SDS011;68121;52.404;5.318;2023-03-31T17:05:30;3.10;;;1.60;;
78778;SDS011;68121;52.404;5.318;2023-03-31T17:07:58;1.65;;;1.40;;
78778;SDS011;68121;52.404;5.318;2023-03-31T17:10:24;3.97;;;1.80;;
78778;SDS011;68121;52.404;5.318;2023-03-31T17:12:51;4.00;;;1.70;;
78778;SDS011;68121;52.404;5.318;2023-03-31T17:15:17;4.25;;;1.65;;
78778;SDS011;68121;52.404;5.318;2023-03-31T17:17:43;2.33;;;1.50;;
78778;SDS011;68121;52.404;5.318;2023-03-31T17:20:09;4.45;;;1.50;;
78778;SDS011;68121;52.404;5.318;2023-03-31T17:22:35;2.28;;;1.50;;
78778;SDS011;68121;52.404;5.318;2023-03-31T17:25:02;1.98;;;1.33;;
78778;SDS011;68121;52.404;5.318;2023-03-31T17:27:29;2.92;;;1.05;;
78778;SDS011;68121;52.404;5.318;2023-03-31T17:29:55;2.42;;;1.10;;
78778;SDS011;68121;52.404;5.318;2023-03-31T17:32:21;2.67;;;1.60;;
78778;SDS011;68121;52.404;5.318;2023-03-31T17:34:48;2.17;;;1.33;;
78778;SDS011;68121;52.404;5.318;2023-03-31T17:37:15;2.00;;;1.20;;
78778;SDS011;68121;52.404;5.318;2023-03-31T17:39:43;2.58;;;1.48;;
78778;SDS011;68121;52.404;5.318;2023-03-31T17:42:09;4.55;;;1.13;;
78778;SDS011;68121;52.404;5.318;2023-03-31T17:44:37;2.88;;;1.60;;
78778;SDS011;68121;52.404;5.318;2023-03-31T17:47:04;2.53;;;1.40;;
78778;SDS011;68121;52.404;5.318;2023-03-31T17:49:31;1.70;;;1.15;;
78778;SDS011;68121;52.404;5.318;2023-03-31T17:51:58;3.60;;;1.40;;
78778;SDS011;68121;52.404;5.318;2023-03-31T17:54:24;2.20;;;1.48;;
78778;SDS011;68121;52.404;5.318;2023-03-31T17:56:51;3.40;;;1.45;;
78778;SDS011;68121;52.404;5.318;2023-03-31T17:59:18;1.58;;;1.42;;